CCGS Tanu — CGBY — position and weather

sailwx.info

Track history (hours):
 
Tides and Currents Weather Stations Pressure Air Temp Water Temp Dewpoint Dewpoint Depression Visibility Wind Speed Wind Dir Waves Ship Positions

CCGS Tanu (Canada)

Ship's website: http://www.ccg-gcc.gc.ca/vessels-navires/details_e.asp?id=M-5

Last reported at 2014-Aug-20 15:26 UTC. Time now 2014-Aug-20 16:33 UTC.
Position N 50°43' W 127°29'.

Length 54.5 m; beam 9.7 m; draft 3.7 m.

Type: SAR. MMSI: 316091000.

Date/timePositionNaut miles runAvg speedWind from/ knotsBaromVisibWave heightAir tempDewpointWater temp
2014-Aug-20 15:26N 50°43' W 127°29'0 0.0
2014-Aug-20 14:32N 50°43' W 127°29'0 0.0
2014-Aug-20 13:32N 50°43' W 127°29'0 0.0
2014-Aug-20 12:32N 50°43' W 127°29'0 0.0
2014-Aug-20 11:32N 50°43' W 127°29'0 0.0
2014-Aug-20 10:32N 50°43' W 127°29'0 0.0
2014-Aug-20 09:32N 50°43' W 127°29'0 0.0
2014-Aug-20 08:32N 50°43' W 127°29'0 0.0
2014-Aug-20 07:26N 50°43' W 127°29'0 0.0
2014-Aug-20 06:32N 50°43' W 127°29'0 0.0
2014-Aug-20 05:32N 50°43' W 127°29'0 0.0
2014-Aug-20 04:32N 50°43' W 127°29'0 0.0
2014-Aug-20 03:32N 50°43' W 127°29'0 0.0
2014-Aug-20 02:26N 50°43' W 127°29'0 0.0
2014-Aug-20 01:32N 50°43' W 127°29'0 0.0
2014-Aug-20 00:32N 50°43' W 127°29'0 0.2
2014-Aug-19 23:33N 50°43' W 127°29'1 0.9
2014-Aug-19 22:33N 50°43' W 127°28'0 0.0
2014-Aug-19 21:32N 50°43' W 127°28'0 0.3
2014-Aug-19 20:32N 50°44' W 127°28'1 1.4
2014-Aug-19 19:33N 50°45' W 127°28'9 9.5
2014-Aug-19 18:34N 50°53' W 127°36'1110.8
2014-Aug-19 17:32N 51°01' W 127°47'1111.0
2014-Aug-19 16:32N 51°12' W 127°52'1110.6
2014-Aug-19 15:27N 51°23' W 127°49'2 1.1
2014-Aug-19 13:33N 51°22' W 127°46'0 0.0
2014-Aug-19 12:09N 51°22' W 127°46'0 0.0
2014-Aug-18 18:03N 51°22' W 127°46'0 0.0
2014-Aug-18 17:27N 51°22' W 127°46'0 0.0
2014-Aug-18 08:33N 51°22' W 127°46'0 0.0
2014-Aug-18 06:33N 51°22' W 127°46'0 0.0
2014-Aug-18 05:27N 51°22' W 127°46'0 0.0
2014-Aug-18 03:33N 51°22' W 127°46'0 0.0
2014-Aug-18 01:28N 51°22' W 127°46'1010.3
2014-Aug-18 00:27N 51°32' W 127°51'  
Track history (hours):
 
Tides and Currents Weather Stations Pressure Air Temp Water Temp Dewpoint Dewpoint Depression Visibility Wind Speed Wind Dir Waves Ship Positions

CCGS Tanu (Canada)

Ship's website: http://www.ccg-gcc.gc.ca/vessels-navires/details_e.asp?id=M-5

Last reported at 2014-Aug-20 15:26 UTC. Time now 2014-Aug-20 16:33 UTC.
Position N 50°43' W 127°29'.

Length 54.5 m; beam 9.7 m; draft 3.7 m.

Type: SAR. MMSI: 316091000.

Date/timePositionNaut miles runAvg speedWind from/ knotsBaromVisibWave heightAir tempDewpointWater temp
2014-Aug-20 15:26N 50°43' W 127°29'0 0.0
2014-Aug-20 14:32N 50°43' W 127°29'0 0.0
2014-Aug-20 13:32N 50°43' W 127°29'0 0.0
2014-Aug-20 12:32N 50°43' W 127°29'0 0.0
2014-Aug-20 11:32N 50°43' W 127°29'0 0.0
2014-Aug-20 10:32N 50°43' W 127°29'0 0.0
2014-Aug-20 09:32N 50°43' W 127°29'0 0.0
2014-Aug-20 08:32N 50°43' W 127°29'0 0.0
2014-Aug-20 07:26N 50°43' W 127°29'0 0.0
2014-Aug-20 06:32N 50°43' W 127°29'0 0.0
2014-Aug-20 05:32N 50°43' W 127°29'0 0.0
2014-Aug-20 04:32N 50°43' W 127°29'0 0.0
2014-Aug-20 03:32N 50°43' W 127°29'0 0.0
2014-Aug-20 02:26N 50°43' W 127°29'0 0.0
2014-Aug-20 01:32N 50°43' W 127°29'0 0.0
2014-Aug-20 00:32N 50°43' W 127°29'0 0.2
2014-Aug-19 23:33N 50°43' W 127°29'1 0.9
2014-Aug-19 22:33N 50°43' W 127°28'0 0.0
2014-Aug-19 21:32N 50°43' W 127°28'0 0.3
2014-Aug-19 20:32N 50°44' W 127°28'1 1.4
2014-Aug-19 19:33N 50°45' W 127°28'9 9.5
2014-Aug-19 18:34N 50°53' W 127°36'1110.8
2014-Aug-19 17:32N 51°01' W 127°47'1111.0
2014-Aug-19 16:32N 51°12' W 127°52'1110.6
2014-Aug-19 15:27N 51°23' W 127°49'2 1.1
2014-Aug-19 13:33N 51°22' W 127°46'0 0.0
2014-Aug-19 12:09N 51°22' W 127°46'0 0.0
2014-Aug-18 18:03N 51°22' W 127°46'0 0.0
2014-Aug-18 17:27N 51°22' W 127°46'0 0.0
2014-Aug-18 08:33N 51°22' W 127°46'0 0.0
2014-Aug-18 06:33N 51°22' W 127°46'0 0.0
2014-Aug-18 05:27N 51°22' W 127°46'0 0.0
2014-Aug-18 03:33N 51°22' W 127°46'0 0.0
2014-Aug-18 01:28N 51°22' W 127°46'1010.3
2014-Aug-18 00:27N 51°32' W 127°51'  

Dump ship's entire track history